createdAt,value
2019-03-13T00:01:45.475Z,2.73
2019-03-13T00:04:15.337Z,2.63
2019-03-13T00:06:45.262Z,2.57
2019-03-13T00:09:15.185Z,2.97
2019-03-13T00:11:44.956Z,2.13
2019-03-13T00:14:14.731Z,2.57
2019-03-13T00:16:44.496Z,2.37
2019-03-13T00:19:14.301Z,2.13
2019-03-13T00:21:44.005Z,2.40
2019-03-13T00:24:14.881Z,1.93
2019-03-13T00:26:44.732Z,2.20
2019-03-13T00:29:14.428Z,2.50
2019-03-13T00:31:44.211Z,2.30
2019-03-13T00:34:13.993Z,2.60
2019-03-13T00:36:43.703Z,2.30
2019-03-13T00:39:13.409Z,2.60
2019-03-13T00:41:43.107Z,2.90
2019-03-13T00:44:12.901Z,2.50
2019-03-13T00:46:43.573Z,2.20
2019-03-13T00:49:13.413Z,2.47
2019-03-13T00:51:43.195Z,2.80
2019-03-13T00:54:12.965Z,3.00
2019-03-13T00:56:42.757Z,2.97
2019-03-13T00:59:14.403Z,2.60
2019-03-13T01:02:12.617Z,2.90
2019-03-13T01:04:50.613Z,3.00
2019-03-13T01:07:20.412Z,3.00
2019-03-13T01:09:50.255Z,3.23
2019-03-13T01:12:20.156Z,3.07
2019-03-13T01:14:49.991Z,3.13
2019-03-13T01:17:19.784Z,3.30
2019-03-13T01:19:49.490Z,3.13
2019-03-13T01:22:19.252Z,3.33
2019-03-13T01:24:48.945Z,3.70
2019-03-13T01:27:18.812Z,4.10
2019-03-13T01:29:48.504Z,3.80
2019-03-13T01:32:46.418Z,3.63
2019-03-13T01:35:37.983Z,3.33
2019-03-13T01:38:07.677Z,3.80
2019-03-13T01:40:37.469Z,4.03
2019-03-13T01:43:07.232Z,3.67
2019-03-13T01:45:37.079Z,3.90
2019-03-13T01:48:06.899Z,4.13
2019-03-13T01:50:36.576Z,4.67
2019-03-13T01:53:06.300Z,4.23
2019-03-13T01:55:36.070Z,4.40
2019-03-13T01:58:05.853Z,5.03
2019-03-13T02:00:35.697Z,4.73
2019-03-13T02:03:05.568Z,5.23
2019-03-13T02:05:35.440Z,4.60
2019-03-13T02:08:05.228Z,4.83
2019-03-13T02:10:35.001Z,4.80
2019-03-13T02:13:04.931Z,5.03
2019-03-13T02:15:34.743Z,5.03
2019-03-13T02:18:04.505Z,5.10
2019-03-13T02:20:36.707Z,5.07
2019-03-13T02:23:06.981Z,4.90
2019-03-13T02:25:37.629Z,4.93
2019-03-13T02:28:07.318Z,4.67
2019-03-13T02:30:37.060Z,4.20
2019-03-13T02:33:06.746Z,4.70
2019-03-13T02:35:36.442Z,5.53
2019-03-13T02:38:06.186Z,4.17
2019-03-13T02:40:35.864Z,4.53
2019-03-13T02:43:05.550Z,4.27
2019-03-13T02:45:35.238Z,3.43
2019-03-13T02:48:05.006Z,3.33
2019-03-13T02:50:34.674Z,3.17
2019-03-13T02:53:04.439Z,4.20
2019-03-13T02:55:35.219Z,4.03
2019-03-13T02:58:05.077Z,3.00
2019-03-13T03:00:59.694Z,3.00
2019-03-13T03:03:32.328Z,2.77
2019-03-13T03:06:02.022Z,2.53
2019-03-13T03:08:31.693Z,2.93
2019-03-13T03:11:01.377Z,3.50
2019-03-13T03:13:31.068Z,2.17
2019-03-13T03:16:00.733Z,2.00
2019-03-13T03:18:30.503Z,2.00
2019-03-13T03:21:00.160Z,2.10
2019-03-13T03:23:29.926Z,2.27
2019-03-13T03:25:59.636Z,2.30
2019-03-13T03:28:29.315Z,2.30
2019-03-13T03:30:59.094Z,2.50
2019-03-13T03:33:28.826Z,2.30
2019-03-13T03:35:58.509Z,2.10
2019-03-13T03:38:28.315Z,2.10
2019-03-13T03:40:58.120Z,2.40
2019-03-13T03:43:39.488Z,3.47
2019-03-13T03:45:59.179Z,2.10
2019-03-13T03:48:28.875Z,3.03
2019-03-13T03:50:58.661Z,2.03
2019-03-13T03:53:28.335Z,2.17
2019-03-13T03:55:58.159Z,2.33
2019-03-13T03:58:29.558Z,2.10
2019-03-13T04:00:59.300Z,1.63
2019-03-13T04:03:29.172Z,1.83
2019-03-13T04:05:59.304Z,2.83
2019-03-13T04:08:29.084Z,2.50
2019-03-13T04:10:58.756Z,1.80
2019-03-13T04:13:28.436Z,1.77
2019-03-13T04:15:58.123Z,1.37
2019-03-13T04:18:27.793Z,2.30
2019-03-13T04:20:58.444Z,1.60
2019-03-13T04:23:28.117Z,1.40
2019-03-13T04:25:58.053Z,1.70
2019-03-13T04:28:27.811Z,1.70
2019-03-13T04:30:57.496Z,1.73
2019-03-13T04:33:28.388Z,2.20
2019-03-13T04:35:58.357Z,1.40
2019-03-13T04:38:28.017Z,2.83
2019-03-13T04:40:57.711Z,1.90
2019-03-13T04:43:27.385Z,2.30
2019-03-13T04:45:57.060Z,2.20
2019-03-13T04:48:26.877Z,2.40
2019-03-13T04:50:56.567Z,2.40
2019-03-13T04:53:26.246Z,1.77
2019-03-13T04:55:56.119Z,2.10
2019-03-13T04:58:25.875Z,2.43
2019-03-13T05:00:55.716Z,2.10
2019-03-13T05:03:27.256Z,2.13
2019-03-13T05:06:20.509Z,1.93
2019-03-13T05:09:11.232Z,1.90
2019-03-13T05:11:40.939Z,2.67
2019-03-13T05:14:10.614Z,1.77
2019-03-13T05:16:40.389Z,2.10
2019-03-13T05:19:10.062Z,2.77
2019-03-13T05:21:39.853Z,2.27
2019-03-13T05:24:09.500Z,3.60
2019-03-13T05:26:39.200Z,2.30
2019-03-13T05:29:08.867Z,2.17
2019-03-13T05:31:38.565Z,1.80
2019-03-13T05:34:08.233Z,1.57
2019-03-13T05:36:37.912Z,2.13
2019-03-13T05:39:08.041Z,1.60
2019-03-13T05:41:38.200Z,1.70
2019-03-13T05:44:07.876Z,1.93
2019-03-13T05:46:37.569Z,2.30
2019-03-13T05:49:08.398Z,2.30
2019-03-13T05:51:38.197Z,2.37
2019-03-13T05:54:07.872Z,2.07
2019-03-13T05:56:40.621Z,2.27
2019-03-13T05:59:09.028Z,2.20
2019-03-13T06:01:38.737Z,2.03
2019-03-13T06:04:08.407Z,1.40
2019-03-13T06:06:38.114Z,3.23
2019-03-13T06:09:08.295Z,2.10
2019-03-13T06:11:37.997Z,1.90
2019-03-13T06:14:08.507Z,2.43
2019-03-13T06:16:38.220Z,2.57
2019-03-13T06:19:07.929Z,2.60
2019-03-13T06:21:37.636Z,2.50
2019-03-13T06:24:07.337Z,2.20
2019-03-13T06:26:37.093Z,2.00
2019-03-13T06:29:06.764Z,2.07
2019-03-13T06:31:36.548Z,2.53
2019-03-13T06:34:06.307Z,2.20
2019-03-13T06:36:36.019Z,2.63
2019-03-13T06:39:07.247Z,2.20
2019-03-13T06:41:36.961Z,2.63
2019-03-13T06:44:06.650Z,2.60
2019-03-13T06:46:36.345Z,1.97
2019-03-13T06:49:06.479Z,1.90
2019-03-13T06:51:36.273Z,2.40
2019-03-13T06:54:05.972Z,2.43
2019-03-13T06:56:35.685Z,2.17
2019-03-13T06:59:13.354Z,2.77
2019-03-13T07:02:01.426Z,2.37
2019-03-13T07:04:56.145Z,1.77
2019-03-13T07:07:48.380Z,2.57
2019-03-13T07:10:45.581Z,2.37
2019-03-13T07:13:23.994Z,1.90
2019-03-13T07:16:12.751Z,2.93
2019-03-13T07:18:48.177Z,2.40
2019-03-13T07:21:30.247Z,2.93
2019-03-13T07:24:31.350Z,2.30
2019-03-13T07:27:25.962Z,2.00
2019-03-13T07:30:14.740Z,2.33
2019-03-13T07:33:00.353Z,2.23
2019-03-13T07:35:53.380Z,2.30
2019-03-13T07:38:45.276Z,2.37
2019-03-13T07:41:39.080Z,2.13
2019-03-13T07:44:37.218Z,2.10
2019-03-13T07:47:29.424Z,2.83
2019-03-13T07:50:11.807Z,2.30
2019-03-13T07:52:59.245Z,2.70
2019-03-13T07:55:37.848Z,2.57
2019-03-13T07:58:25.464Z,2.23
2019-03-13T08:01:06.824Z,2.63
2019-03-13T08:03:58.420Z,2.30
2019-03-13T08:06:46.132Z,2.70
2019-03-13T08:09:33.935Z,3.80
2019-03-13T08:12:17.765Z,2.67
2019-03-13T08:14:57.416Z,2.77
2019-03-13T08:17:41.641Z,2.53
2019-03-13T08:20:30.609Z,2.20
2019-03-13T08:23:28.558Z,2.67
2019-03-13T08:26:18.567Z,2.90
2019-03-13T08:29:25.394Z,2.33
2019-03-13T08:32:12.841Z,2.53
2019-03-13T08:35:00.600Z,2.50
2019-03-13T08:37:58.665Z,2.23
2019-03-13T08:40:37.191Z,2.20
2019-03-13T08:43:19.268Z,2.63
2019-03-13T08:46:11.519Z,2.10
2019-03-13T08:48:58.655Z,1.87
2019-03-13T08:51:53.512Z,2.30
2019-03-13T08:54:48.141Z,2.40
2019-03-13T08:57:26.512Z,2.70
2019-03-13T09:00:08.728Z,2.60
2019-03-13T09:02:56.265Z,2.60
2019-03-13T09:05:40.915Z,2.10
2019-03-13T09:08:39.101Z,2.30
2019-03-13T09:11:18.627Z,2.10
2019-03-13T09:14:12.483Z,1.90
2019-03-13T09:16:56.052Z,2.80
2019-03-13T09:19:47.639Z,2.43
2019-03-13T09:22:35.061Z,2.03
2019-03-13T09:25:23.003Z,2.20
2019-03-13T09:28:17.652Z,1.90
2019-03-13T09:31:01.956Z,1.43
2019-03-13T09:33:47.022Z,1.80
2019-03-13T09:36:35.797Z,1.87
2019-03-13T09:39:28.552Z,2.50
2019-03-13T09:42:10.111Z,2.50
2019-03-13T09:45:01.690Z,1.77
2019-03-13T09:47:52.322Z,1.50
2019-03-13T09:50:27.155Z,1.50
2019-03-13T09:53:15.967Z,1.63
2019-03-13T09:55:55.950Z,1.97
2019-03-13T09:58:50.824Z,1.63
2019-03-13T10:01:37.657Z,1.70
2019-03-13T10:04:32.432Z,2.23
2019-03-13T10:07:20.800Z,1.63
2019-03-13T10:10:14.964Z,1.87
2019-03-13T10:13:16.079Z,1.60
2019-03-13T10:15:53.907Z,1.40
2019-03-13T10:18:57.739Z,2.10
2019-03-13T10:21:52.624Z,1.90
2019-03-13T10:24:40.146Z,1.93
2019-03-13T10:27:27.810Z,2.87
2019-03-13T10:30:06.443Z,1.87
2019-03-13T10:32:47.728Z,1.77
2019-03-13T10:35:35.368Z,1.57
2019-03-13T10:38:15.344Z,1.73
2019-03-13T10:41:07.015Z,2.30
2019-03-13T10:43:54.535Z,1.90
2019-03-13T10:46:37.174Z,2.07
2019-03-13T10:49:19.503Z,1.43
2019-03-13T10:52:05.902Z,2.30
2019-03-13T10:54:51.564Z,1.77
2019-03-13T10:57:52.696Z,2.07
2019-03-13T11:00:36.034Z,2.37
2019-03-13T11:03:28.234Z,1.70
2019-03-13T11:06:15.923Z,2.17
2019-03-13T11:08:56.473Z,1.70
2019-03-13T11:12:00.895Z,2.10
2019-03-13T11:14:48.428Z,2.10
2019-03-13T11:17:35.905Z,2.17
2019-03-13T11:20:22.429Z,2.10
2019-03-13T11:23:03.728Z,2.10
2019-03-13T11:25:52.472Z,3.27
2019-03-13T11:28:41.026Z,2.07
2019-03-13T11:31:42.044Z,2.00
2019-03-13T11:34:33.275Z,2.07
2019-03-13T11:37:29.485Z,2.40
2019-03-13T11:40:06.393Z,2.13
2019-03-13T11:43:02.643Z,2.10
2019-03-13T11:45:57.724Z,2.30
2019-03-13T11:48:35.726Z,2.03
2019-03-13T11:51:30.667Z,2.10
2019-03-13T11:54:16.527Z,2.30
2019-03-13T11:57:04.054Z,1.93
2019-03-13T11:59:56.857Z,2.13
2019-03-13T12:02:43.148Z,2.10
2019-03-13T12:05:23.315Z,1.70
2019-03-13T12:08:03.253Z,2.07
2019-03-13T12:10:51.026Z,1.87
2019-03-13T12:13:45.980Z,2.50
2019-03-13T12:16:34.744Z,1.90
2019-03-13T12:19:19.929Z,1.60
2019-03-13T12:22:01.583Z,1.53
2019-03-13T12:24:44.701Z,1.80
2019-03-13T12:27:21.793Z,1.93
2019-03-13T12:30:11.484Z,1.73
2019-03-13T12:32:54.903Z,1.93
2019-03-13T12:35:39.682Z,2.30
2019-03-13T12:38:47.192Z,2.07
2019-03-13T12:41:48.149Z,1.30
2019-03-13T12:44:24.259Z,2.80
2019-03-13T12:47:18.940Z,2.40
2019-03-13T12:50:10.846Z,2.17
2019-03-13T12:52:58.236Z,1.70
2019-03-13T12:55:47.096Z,1.50
2019-03-13T12:58:34.471Z,1.37
2019-03-13T13:01:41.591Z,1.40
2019-03-13T13:04:29.674Z,1.60
2019-03-13T13:07:11.379Z,1.50
2019-03-13T13:10:03.095Z,1.40
2019-03-13T13:12:54.208Z,1.23
2019-03-13T13:15:49.409Z,1.53
2019-03-13T13:18:30.599Z,1.53
2019-03-13T13:21:00.285Z,1.87
2019-03-13T13:23:31.107Z,2.30
2019-03-13T13:26:00.892Z,1.40
2019-03-13T13:28:30.719Z,1.50
2019-03-13T13:31:00.496Z,1.27
2019-03-13T13:33:30.165Z,1.30
2019-03-13T13:35:59.862Z,1.47
2019-03-13T13:38:29.604Z,1.57
2019-03-13T13:40:59.331Z,1.30
2019-03-13T13:43:29.011Z,1.60
2019-03-13T13:46:02.915Z,1.07
2019-03-13T13:48:32.577Z,1.50
2019-03-13T13:51:02.287Z,1.50
2019-03-13T13:53:31.962Z,1.60
2019-03-13T13:56:01.648Z,1.97
2019-03-13T13:58:31.328Z,1.37
2019-03-13T14:01:01.079Z,1.70
2019-03-13T14:03:30.767Z,1.70
2019-03-13T14:06:00.477Z,1.17
2019-03-13T14:08:30.242Z,1.50
2019-03-13T14:11:01.486Z,1.50
2019-03-13T14:13:31.166Z,1.00
2019-03-13T14:16:00.938Z,1.53
2019-03-13T14:18:30.718Z,0.97
2019-03-13T14:21:00.488Z,1.00
2019-03-13T14:23:30.194Z,1.40
2019-03-13T14:25:59.956Z,1.10
2019-03-13T14:28:29.661Z,1.20
2019-03-13T14:30:59.534Z,1.07
2019-03-13T14:33:29.299Z,1.27
2019-03-13T14:35:59.163Z,1.63
2019-03-13T14:38:28.899Z,1.60
2019-03-13T14:40:58.697Z,1.90
2019-03-13T14:43:28.545Z,1.60
2019-03-13T14:45:58.404Z,2.30
2019-03-13T14:48:28.119Z,1.70
2019-03-13T14:50:57.796Z,1.90
2019-03-13T14:53:27.710Z,2.00
2019-03-13T14:55:57.481Z,2.00
2019-03-13T14:58:27.360Z,2.20
2019-03-13T15:00:57.230Z,1.63
2019-03-13T15:03:26.922Z,1.87
2019-03-13T15:05:56.695Z,2.20
2019-03-13T15:08:26.381Z,1.67
2019-03-13T15:10:56.167Z,1.90
2019-03-13T15:13:26.910Z,1.77
2019-03-13T15:15:56.663Z,1.83
2019-03-13T15:18:26.369Z,1.67
2019-03-13T15:20:56.198Z,1.90
2019-03-13T15:23:26.106Z,1.30
2019-03-13T15:25:55.868Z,1.30
2019-03-13T15:28:25.586Z,1.70
2019-03-13T15:30:55.458Z,0.97
2019-03-13T15:33:25.165Z,1.20
2019-03-13T15:35:54.852Z,1.20
2019-03-13T15:38:24.564Z,1.20
2019-03-13T15:40:54.273Z,1.10
2019-03-13T15:43:24.029Z,1.27
2019-03-13T15:45:53.733Z,1.20
2019-03-13T15:48:23.410Z,1.67
2019-03-13T15:50:53.184Z,1.77
2019-03-13T15:53:22.919Z,1.67
2019-03-13T15:55:52.698Z,1.10
2019-03-13T15:58:22.445Z,1.00
2019-03-13T16:00:52.325Z,0.83
2019-03-13T16:03:22.127Z,1.20
2019-03-13T16:05:51.893Z,1.40
2019-03-13T16:08:21.577Z,1.30
2019-03-13T16:10:51.292Z,1.40
2019-03-13T16:13:20.984Z,1.63
2019-03-13T16:15:50.848Z,1.30
2019-03-13T16:18:20.527Z,1.30
2019-03-13T16:20:50.301Z,1.53
2019-03-13T16:23:19.994Z,1.27
2019-03-13T16:25:49.863Z,2.83
2019-03-13T16:28:19.557Z,2.27
2019-03-13T16:30:49.566Z,2.97
2019-03-13T16:33:19.254Z,2.37
2019-03-13T16:35:49.126Z,1.47
2019-03-13T16:38:18.958Z,1.53
2019-03-13T16:40:48.658Z,1.60
2019-03-13T16:43:18.768Z,1.67
2019-03-13T16:45:49.528Z,1.43
2019-03-13T16:48:19.365Z,1.83
2019-03-13T16:50:49.214Z,1.57
2019-03-13T16:53:18.889Z,1.40
2019-03-13T16:55:48.757Z,1.57
2019-03-13T16:58:18.437Z,2.40
2019-03-13T17:00:50.585Z,1.70
2019-03-13T17:03:20.025Z,1.53
2019-03-13T17:05:50.114Z,1.50
2019-03-13T17:08:19.914Z,1.70
2019-03-13T17:10:49.690Z,2.20
2019-03-13T17:13:19.393Z,1.97
2019-03-13T17:15:49.168Z,2.13
2019-03-13T17:18:18.932Z,2.20
2019-03-13T17:20:48.673Z,1.30
2019-03-13T17:23:18.513Z,1.90
2019-03-13T17:25:48.366Z,1.67
2019-03-13T17:28:18.453Z,1.23
2019-03-13T17:30:49.365Z,1.87
2019-03-13T17:33:19.140Z,1.30
2019-03-13T17:35:48.859Z,1.60
2019-03-13T17:38:18.548Z,1.40
2019-03-13T17:40:48.329Z,1.60
2019-03-13T17:43:18.112Z,1.50
2019-03-13T17:45:47.885Z,1.90
2019-03-13T17:48:19.868Z,1.73
2019-03-13T17:50:49.700Z,1.53
2019-03-13T17:53:19.416Z,1.83
2019-03-13T17:55:49.138Z,1.83
2019-03-13T17:58:18.852Z,2.23
2019-03-13T18:00:51.048Z,1.80
2019-03-13T18:03:21.705Z,1.87
2019-03-13T18:05:51.541Z,2.07
2019-03-13T18:08:21.404Z,1.60
2019-03-13T18:10:51.267Z,1.30
2019-03-13T18:13:22.810Z,1.97
2019-03-13T18:15:55.581Z,1.40
2019-03-13T18:18:25.301Z,1.40
2019-03-13T18:20:55.073Z,1.53
2019-03-13T18:23:24.772Z,1.43
2019-03-13T18:25:54.780Z,1.60
2019-03-13T18:28:24.636Z,1.63
2019-03-13T18:30:54.324Z,1.47
2019-03-13T18:33:24.198Z,1.50
2019-03-13T18:35:53.932Z,1.77
2019-03-13T18:38:23.728Z,2.43
2019-03-13T18:40:53.506Z,2.00
2019-03-13T18:43:23.374Z,2.33
2019-03-13T18:45:53.088Z,1.70
2019-03-13T18:48:22.782Z,2.10
2019-03-13T18:50:52.597Z,1.60
2019-03-13T18:53:22.380Z,1.70
2019-03-13T18:55:52.140Z,2.07
2019-03-13T18:58:21.934Z,1.63
2019-03-13T19:00:51.804Z,1.57
2019-03-13T19:03:21.515Z,1.87
2019-03-13T19:05:54.456Z,2.10
2019-03-13T19:08:22.879Z,1.70
2019-03-13T19:10:52.641Z,2.73
2019-03-13T19:13:23.324Z,1.50
2019-03-13T19:15:53.108Z,2.13
2019-03-13T19:18:23.006Z,1.90
2019-03-13T19:20:54.025Z,1.83
2019-03-13T19:23:23.980Z,1.77
2019-03-13T19:25:53.652Z,1.87
2019-03-13T19:28:23.520Z,1.90
2019-03-13T19:30:53.300Z,1.60
2019-03-13T19:33:24.086Z,1.77
2019-03-13T19:35:55.073Z,1.40
2019-03-13T19:38:26.259Z,1.83
2019-03-13T19:40:56.809Z,1.73
2019-03-13T19:43:26.580Z,1.60
2019-03-13T19:45:56.273Z,2.07
2019-03-13T19:48:26.108Z,2.13
2019-03-13T19:50:56.724Z,2.27
2019-03-13T19:53:26.702Z,1.83
2019-03-13T19:55:56.570Z,2.07
2019-03-13T19:58:26.437Z,1.90
2019-03-13T20:00:56.242Z,2.43
2019-03-13T20:03:26.016Z,2.30
2019-03-13T20:05:55.899Z,1.73
2019-03-13T20:08:25.983Z,2.00
2019-03-13T20:10:58.082Z,2.60
2019-03-13T20:13:28.376Z,2.30
2019-03-13T20:15:58.558Z,1.73
2019-03-13T20:18:28.726Z,1.90
2019-03-13T20:20:58.491Z,2.40
2019-03-13T20:23:28.244Z,2.20
2019-03-13T20:25:58.435Z,2.13
2019-03-13T20:28:28.459Z,2.60
2019-03-13T20:30:58.196Z,2.10
2019-03-13T20:33:28.155Z,2.37
2019-03-13T20:35:58.017Z,3.37
2019-03-13T20:38:27.820Z,2.60
2019-03-13T20:40:57.636Z,2.50
2019-03-13T20:43:27.371Z,1.80
2019-03-13T20:45:57.200Z,2.33
2019-03-13T20:48:26.880Z,2.60
2019-03-13T20:50:56.652Z,2.00
2019-03-13T20:53:26.322Z,2.03
2019-03-13T20:55:58.676Z,3.27
2019-03-13T20:58:29.532Z,1.93
2019-03-13T21:00:59.469Z,2.03
2019-03-13T21:03:29.392Z,3.03
2019-03-13T21:06:00.746Z,2.43
2019-03-13T21:08:31.097Z,1.80
2019-03-13T21:11:01.871Z,2.43
2019-03-13T21:13:31.705Z,2.20
2019-03-13T21:16:01.397Z,1.83
2019-03-13T21:18:31.351Z,1.77
2019-03-13T21:21:01.064Z,2.17
2019-03-13T21:23:31.829Z,2.83
2019-03-13T21:26:01.667Z,2.50
2019-03-13T21:28:31.528Z,2.27
2019-03-13T21:31:03.880Z,3.10
2019-03-13T21:33:35.879Z,2.33
2019-03-13T21:36:05.652Z,2.10
2019-03-13T21:38:35.496Z,2.33
2019-03-13T21:41:05.201Z,2.23
2019-03-13T21:43:36.025Z,3.13
2019-03-13T21:46:06.926Z,2.83
2019-03-13T21:48:36.836Z,2.27
2019-03-13T21:51:06.705Z,1.93
2019-03-13T21:53:36.400Z,2.60
2019-03-13T21:56:06.274Z,2.47
2019-03-13T21:58:35.972Z,2.10
2019-03-13T22:01:18.611Z,2.57
2019-03-13T22:03:37.276Z,3.07
2019-03-13T22:06:07.053Z,2.07
2019-03-13T22:08:36.846Z,2.20
2019-03-13T22:11:06.920Z,3.33
2019-03-13T22:13:36.618Z,2.70
2019-03-13T22:16:06.408Z,2.20
2019-03-13T22:18:39.933Z,2.23
2019-03-13T22:21:09.654Z,1.97
2019-03-13T22:23:39.412Z,2.07
2019-03-13T22:26:09.156Z,1.93
2019-03-13T22:28:38.851Z,2.33
2019-03-13T22:31:08.548Z,2.03
2019-03-13T22:33:38.254Z,3.00
2019-03-13T22:36:08.001Z,1.90
2019-03-13T22:38:37.700Z,2.50
2019-03-13T22:41:07.388Z,2.00
2019-03-13T22:43:37.092Z,3.50
2019-03-13T22:46:06.928Z,2.43
2019-03-13T22:48:36.741Z,3.10
2019-03-13T22:51:06.516Z,2.47
2019-03-13T22:53:36.212Z,2.27
2019-03-13T22:56:05.977Z,2.43
2019-03-13T22:58:35.836Z,1.80
2019-03-13T23:01:13.183Z,1.60
2019-03-13T23:03:43.492Z,1.80
2019-03-13T23:06:13.328Z,1.70
2019-03-13T23:08:43.102Z,2.77
2019-03-13T23:11:12.783Z,2.33
2019-03-13T23:13:42.503Z,2.00
2019-03-13T23:16:12.185Z,2.00
2019-03-13T23:18:41.949Z,1.93
2019-03-13T23:21:11.660Z,2.50
2019-03-13T23:23:41.427Z,2.40
2019-03-13T23:26:11.117Z,1.60
2019-03-13T23:28:40.821Z,2.00
2019-03-13T23:31:10.567Z,2.17
2019-03-13T23:33:40.358Z,2.27
2019-03-13T23:36:10.105Z,2.07
2019-03-13T23:38:39.991Z,2.10
2019-03-13T23:41:12.316Z,2.53
2019-03-13T23:43:42.009Z,1.93
2019-03-13T23:46:11.696Z,2.63
2019-03-13T23:48:41.407Z,2.03
2019-03-13T23:51:11.082Z,3.03
2019-03-13T23:53:40.857Z,2.77
2019-03-13T23:56:10.547Z,2.80
2019-03-13T23:58:40.243Z,2.03
